createdAt,value
2018-04-11T00:00:50.925Z,12.00
2018-04-11T00:03:17.030Z,12.20
2018-04-11T00:05:43.133Z,12.10
2018-04-11T00:08:09.268Z,12.10
2018-04-11T00:10:35.373Z,12.20
2018-04-11T00:13:01.472Z,12.10
2018-04-11T00:15:27.602Z,12.10
2018-04-11T00:17:53.719Z,12.00
2018-04-11T00:20:20.595Z,12.00
2018-04-11T00:22:46.742Z,12.00
2018-04-11T00:25:13.883Z,12.10
2018-04-11T00:27:39.976Z,12.00
2018-04-11T00:30:06.082Z,12.10
2018-04-11T00:32:33.127Z,12.10
2018-04-11T00:35:00.148Z,12.10
2018-04-11T00:37:26.310Z,12.10
2018-04-11T00:39:52.497Z,12.00
2018-04-11T00:42:18.657Z,12.00
2018-04-11T00:44:44.847Z,11.80
2018-04-11T00:47:11.072Z,11.80
2018-04-11T00:49:37.269Z,11.90
2018-04-11T00:52:03.455Z,11.90
2018-04-11T00:54:29.659Z,12.00
2018-04-11T00:56:55.921Z,12.10
2018-04-11T00:59:22.153Z,12.00
2018-04-11T01:01:48.862Z,12.10
2018-04-11T01:04:15.912Z,12.10
2018-04-11T01:06:42.125Z,12.00
2018-04-11T01:09:08.317Z,12.00
2018-04-11T01:11:34.596Z,12.10
2018-04-11T01:14:00.846Z,12.20
2018-04-11T01:16:27.131Z,12.00
2018-04-11T01:18:53.321Z,11.70
2018-04-11T01:21:19.511Z,11.50
2018-04-11T01:23:45.681Z,11.70
2018-04-11T01:26:11.888Z,11.70
2018-04-11T01:28:38.044Z,11.80
2018-04-11T01:31:04.227Z,11.80
2018-04-11T01:33:30.426Z,12.00
2018-04-11T01:35:57.392Z,11.90
2018-04-11T01:38:23.551Z,11.90
2018-04-11T01:40:49.663Z,12.00
2018-04-11T01:43:15.814Z,12.10
2018-04-11T01:45:41.922Z,12.10
2018-04-11T01:48:08.022Z,12.10
2018-04-11T01:50:34.156Z,12.00
2018-04-11T01:53:00.271Z,12.00
2018-04-11T01:55:26.979Z,12.00
2018-04-11T01:57:53.121Z,12.10
2018-04-11T02:00:19.230Z,12.00
2018-04-11T02:02:45.341Z,12.10
2018-04-11T02:05:11.471Z,12.00
2018-04-11T02:07:37.683Z,12.10
2018-04-11T02:10:03.816Z,12.10
2018-04-11T02:12:29.919Z,12.10
2018-04-11T02:14:56.038Z,12.10
2018-04-11T02:17:22.741Z,12.10
2018-04-11T02:19:48.955Z,12.10
2018-04-11T02:22:15.134Z,12.10
2018-04-11T02:24:41.250Z,12.10
2018-04-11T02:27:07.364Z,12.10
2018-04-11T02:29:33.492Z,12.00
2018-04-11T02:31:59.761Z,12.00
2018-04-11T02:34:25.849Z,12.00
2018-04-11T02:36:51.959Z,12.00
2018-04-11T02:39:18.083Z,12.00
2018-04-11T02:41:44.198Z,11.90
2018-04-11T02:44:10.328Z,11.90
2018-04-11T02:46:36.433Z,12.00
2018-04-11T02:49:03.282Z,12.00
2018-04-11T02:51:29.403Z,12.00
2018-04-11T02:53:56.253Z,12.10
2018-04-11T02:56:22.388Z,12.10
2018-04-11T02:58:48.568Z,12.10
2018-04-11T03:01:14.691Z,12.00
2018-04-11T03:03:40.781Z,11.90
2018-04-11T03:06:06.891Z,11.90
2018-04-11T03:08:33.930Z,11.90
2018-04-11T03:11:00.029Z,11.90
2018-04-11T03:13:26.129Z,11.80
2018-04-11T03:15:52.239Z,11.90
2018-04-11T03:18:18.381Z,11.80
2018-04-11T03:20:44.466Z,11.80
2018-04-11T03:23:10.634Z,11.80
2018-04-11T03:25:36.738Z,11.80
2018-04-11T03:28:02.851Z,11.80
2018-04-11T03:30:28.983Z,11.80
2018-04-11T03:32:55.182Z,11.80
2018-04-11T03:35:21.342Z,11.90
2018-04-11T03:37:47.487Z,11.80
2018-04-11T03:40:13.571Z,11.80
2018-04-11T03:42:39.685Z,11.80
2018-04-11T03:45:05.770Z,11.80
2018-04-11T03:47:31.887Z,11.70
2018-04-11T03:49:58.006Z,11.80
2018-04-11T03:52:24.107Z,11.80
2018-04-11T03:54:50.233Z,11.80
2018-04-11T03:57:16.334Z,11.80
2018-04-11T03:59:42.486Z,11.90
2018-04-11T04:02:08.675Z,11.70
2018-04-11T04:04:34.887Z,11.80
2018-04-11T04:07:01.134Z,11.80
2018-04-11T04:09:27.307Z,11.80
2018-04-11T04:11:53.411Z,11.80
2018-04-11T04:14:31.759Z,11.80
2018-04-11T04:17:10.088Z,11.80
2018-04-11T04:19:39.695Z,11.80
2018-04-11T04:22:06.530Z,11.70
2018-04-11T04:24:33.471Z,11.70
2018-04-11T04:26:59.551Z,11.70
2018-04-11T04:29:25.694Z,11.70
2018-04-11T04:31:51.818Z,11.80
2018-04-11T04:34:17.947Z,11.70
2018-04-11T04:36:44.362Z,11.70
2018-04-11T04:39:10.454Z,11.60
2018-04-11T04:41:36.605Z,11.60
2018-04-11T04:44:02.793Z,11.50
2018-04-11T04:46:28.956Z,11.50
2018-04-11T04:48:55.107Z,11.40
2018-04-11T04:51:21.234Z,11.40
2018-04-11T04:53:47.343Z,11.30
2018-04-11T04:56:14.095Z,11.30
2018-04-11T04:58:40.211Z,11.30
2018-04-11T05:01:06.350Z,11.40
2018-04-11T05:03:32.481Z,11.30
2018-04-11T05:05:58.606Z,11.20
2018-04-11T05:08:24.808Z,11.20
2018-04-11T05:10:51.023Z,11.40
2018-04-11T05:13:17.146Z,11.30
2018-04-11T05:15:43.250Z,11.40
2018-04-11T05:18:09.371Z,11.40
2018-04-11T05:20:35.609Z,11.40
2018-04-11T05:23:01.794Z,11.40
2018-04-11T05:25:27.949Z,11.40
2018-04-11T05:27:54.117Z,11.40
2018-04-11T05:30:20.245Z,11.50
2018-04-11T05:32:46.400Z,11.50
2018-04-11T05:35:12.597Z,11.50
2018-04-11T05:37:38.706Z,11.40
2018-04-11T05:40:04.937Z,11.40
2018-04-11T05:42:31.720Z,11.40
2018-04-11T05:44:58.579Z,11.40
2018-04-11T05:47:24.675Z,11.40
2018-04-11T05:49:50.903Z,11.30
2018-04-11T05:52:17.085Z,11.40
2018-04-11T05:54:43.215Z,11.30
2018-04-11T05:57:09.322Z,11.30
2018-04-11T05:59:35.431Z,11.20
2018-04-11T06:02:01.564Z,11.20
2018-04-11T06:04:28.470Z,11.20
2018-04-11T06:06:54.590Z,11.20
2018-04-11T06:09:20.705Z,11.30
2018-04-11T06:11:46.809Z,11.30
2018-04-11T06:14:12.970Z,11.30
2018-04-11T06:16:39.166Z,11.40
2018-04-11T06:19:05.446Z,11.40
2018-04-11T06:21:32.350Z,11.40
2018-04-11T06:23:58.446Z,11.40
2018-04-11T06:26:24.562Z,11.40
2018-04-11T06:28:50.653Z,11.40
2018-04-11T06:31:17.526Z,11.40
2018-04-11T06:33:43.717Z,11.40
2018-04-11T06:36:09.854Z,11.40
2018-04-11T06:38:35.974Z,11.40
2018-04-11T06:41:02.091Z,11.40
2018-04-11T06:43:28.972Z,11.40
2018-04-11T06:45:55.119Z,11.40
2018-04-11T06:48:21.263Z,11.30
2018-04-11T06:50:47.430Z,11.40
2018-04-11T06:53:13.615Z,11.30
2018-04-11T06:55:39.751Z,11.40
2018-04-11T06:58:05.870Z,11.40
2018-04-11T07:00:31.998Z,11.50
2018-04-11T07:02:58.157Z,11.50
2018-04-11T07:05:24.267Z,11.50
2018-04-11T07:07:50.382Z,11.50
2018-04-11T07:10:17.252Z,11.30
2018-04-11T07:12:44.560Z,11.30
2018-04-11T07:15:11.227Z,11.30
2018-04-11T07:17:37.461Z,11.30
2018-04-11T07:20:03.635Z,11.30
2018-04-11T07:22:29.807Z,11.30
2018-04-11T07:24:55.969Z,11.40
2018-04-11T07:27:22.079Z,11.40
2018-04-11T07:29:48.238Z,11.50
2018-04-11T07:32:14.338Z,11.60
2018-04-11T07:34:40.503Z,11.50
2018-04-11T07:37:06.641Z,11.50
2018-04-11T07:39:32.827Z,11.40
2018-04-11T07:41:58.960Z,11.40
2018-04-11T07:44:25.078Z,11.50
2018-04-11T07:46:51.200Z,11.40
2018-04-11T07:49:17.394Z,11.40
2018-04-11T07:51:43.612Z,11.20
2018-04-11T07:54:10.534Z,11.30
2018-04-11T07:56:36.671Z,11.20
2018-04-11T07:59:03.615Z,11.50
2018-04-11T08:01:29.750Z,11.50
2018-04-11T08:03:55.866Z,11.60
2018-04-11T08:06:22.044Z,11.70
2018-04-11T08:08:48.170Z,11.90
2018-04-11T08:11:14.320Z,11.80
2018-04-11T08:13:40.436Z,12.00
2018-04-11T08:16:06.579Z,12.00
2018-04-11T08:18:32.704Z,12.00
2018-04-11T08:20:58.846Z,12.00
2018-04-11T08:23:29.650Z,12.20
2018-04-11T08:25:55.886Z,12.20
2018-04-11T08:28:22.020Z,12.20
2018-04-11T08:30:48.139Z,12.30
2018-04-11T08:33:14.270Z,12.30
2018-04-11T08:35:41.199Z,12.30
2018-04-11T08:38:07.313Z,12.30
2018-04-11T08:40:33.587Z,12.30
2018-04-11T08:42:59.751Z,12.30
2018-04-11T08:45:25.962Z,12.30
2018-04-11T08:47:52.088Z,12.30
2018-04-11T08:50:18.175Z,12.30
2018-04-11T08:52:44.282Z,12.40
2018-04-11T08:55:10.374Z,12.30
2018-04-11T08:57:36.531Z,12.40
2018-04-11T09:00:02.648Z,12.50
2018-04-11T09:02:28.813Z,12.50
2018-04-11T09:04:54.962Z,12.50
2018-04-11T09:07:21.090Z,12.50
2018-04-11T09:09:47.289Z,12.70
2018-04-11T09:12:13.534Z,12.70
2018-04-11T09:14:39.737Z,12.90
2018-04-11T09:17:05.889Z,12.90
2018-04-11T09:19:31.994Z,13.00
2018-04-11T09:21:58.918Z,13.20
2018-04-11T09:24:25.050Z,13.10
2018-04-11T09:26:51.899Z,13.20
2018-04-11T09:29:18.746Z,13.30
2018-04-11T09:31:44.974Z,13.20
2018-04-11T09:34:11.129Z,13.40
2018-04-11T09:36:37.276Z,13.40
2018-04-11T09:39:03.435Z,13.50
2018-04-11T09:41:29.575Z,13.60
2018-04-11T09:43:56.487Z,13.60
2018-04-11T09:46:22.594Z,13.60
2018-04-11T09:48:48.752Z,13.60
2018-04-11T09:51:14.845Z,13.60
2018-04-11T09:53:40.981Z,13.60
2018-04-11T09:56:07.175Z,13.50
2018-04-11T09:58:33.294Z,13.60
2018-04-11T10:00:59.445Z,13.70
2018-04-11T10:03:34.811Z,13.60
2018-04-11T10:06:00.999Z,13.80
2018-04-11T10:08:28.991Z,13.80
2018-04-11T10:10:55.224Z,13.80
2018-04-11T10:13:21.615Z,13.70
2018-04-11T10:15:47.791Z,13.70
2018-04-11T10:18:13.934Z,13.70
2018-04-11T10:20:40.763Z,13.70
2018-04-11T10:23:06.969Z,13.60
2018-04-11T10:25:33.098Z,13.60
2018-04-11T10:28:00.791Z,13.60
2018-04-11T10:30:26.943Z,13.60
2018-04-11T10:32:53.129Z,13.60
2018-04-11T10:35:19.350Z,13.70
2018-04-11T10:37:45.510Z,13.80
2018-04-11T10:40:11.895Z,13.80
2018-04-11T10:42:38.127Z,13.80
2018-04-11T10:45:05.063Z,13.80
2018-04-11T10:47:31.237Z,13.90
2018-04-11T10:49:57.367Z,13.90
2018-04-11T10:52:23.598Z,13.90
2018-04-11T10:54:49.742Z,14.00
2018-04-11T10:57:15.973Z,13.80
2018-04-11T10:59:42.094Z,13.80
2018-04-11T11:02:08.436Z,13.90
2018-04-11T11:04:34.572Z,13.90
2018-04-11T11:07:00.684Z,13.90
2018-04-11T11:09:26.847Z,14.00
2018-04-11T11:11:54.015Z,14.20
2018-04-11T11:14:20.263Z,14.30
2018-04-11T11:16:46.403Z,14.40
2018-04-11T11:19:12.555Z,14.40
2018-04-11T11:21:38.766Z,14.40
2018-04-11T11:24:05.161Z,14.40
2018-04-11T11:26:31.651Z,14.60
2018-04-11T11:28:57.900Z,14.70
2018-04-11T11:31:24.041Z,14.70
2018-04-11T11:33:50.156Z,14.80
2018-04-11T11:36:17.283Z,14.80
2018-04-11T11:38:44.051Z,14.90
2018-04-11T11:41:10.308Z,14.80
2018-04-11T11:43:36.444Z,14.80
2018-04-11T11:46:02.722Z,14.80
2018-04-11T11:48:29.607Z,14.80
2018-04-11T11:50:56.163Z,14.80
2018-04-11T11:53:22.909Z,15.00
2018-04-11T11:55:49.071Z,15.00
2018-04-11T11:58:15.368Z,15.10
2018-04-11T12:00:42.235Z,15.10
2018-04-11T12:03:08.395Z,15.20
2018-04-11T12:05:34.593Z,15.20
2018-04-11T12:08:00.840Z,15.20
2018-04-11T12:10:27.011Z,15.30
2018-04-11T12:12:53.140Z,15.30
2018-04-11T12:15:19.364Z,15.40
2018-04-11T12:17:46.490Z,15.50
2018-04-11T12:20:12.629Z,15.60
2018-04-11T12:22:39.141Z,15.80
2018-04-11T12:25:05.438Z,15.80
2018-04-11T12:27:32.270Z,15.90
2018-04-11T12:29:59.189Z,16.00
2018-04-11T12:32:27.284Z,16.00
2018-04-11T12:34:54.493Z,16.10
2018-04-11T12:37:20.685Z,16.10
2018-04-11T12:39:46.787Z,16.20
2018-04-11T12:42:13.759Z,16.10
2018-04-11T12:44:40.676Z,16.10
2018-04-11T12:47:07.130Z,16.10
2018-04-11T12:49:34.082Z,16.20
2018-04-11T12:52:00.241Z,16.30
2018-04-11T12:54:26.442Z,16.30
2018-04-11T12:56:52.631Z,16.30
2018-04-11T12:59:18.759Z,16.50
2018-04-11T13:01:45.474Z,16.60
2018-04-11T13:04:11.711Z,16.70
2018-04-11T13:06:37.957Z,16.80
2018-04-11T13:09:07.218Z,16.80
2018-04-11T13:11:34.448Z,17.00
2018-04-11T13:14:00.611Z,17.10
2018-04-11T13:16:26.807Z,17.20
2018-04-11T13:18:52.980Z,17.10
2018-04-11T13:21:19.220Z,17.00
2018-04-11T13:23:45.441Z,17.00
2018-04-11T13:26:11.646Z,17.00
2018-04-11T13:28:37.806Z,17.00
2018-04-11T13:31:04.027Z,17.20
2018-04-11T13:33:30.708Z,17.30
2018-04-11T13:35:56.874Z,17.50
2018-04-11T13:38:23.640Z,17.90
2018-04-11T13:40:49.751Z,18.20
2018-04-11T13:43:16.162Z,18.20
2018-04-11T13:45:42.374Z,17.70
2018-04-11T13:48:08.511Z,17.80
2018-04-11T13:50:34.605Z,17.80
2018-04-11T13:53:00.773Z,17.90
2018-04-11T13:55:26.909Z,17.90
2018-04-11T13:57:53.068Z,17.90
2018-04-11T14:00:19.190Z,18.00
2018-04-11T14:02:45.626Z,18.00
2018-04-11T14:05:11.774Z,17.90
2018-04-11T14:07:38.008Z,17.90
2018-04-11T14:10:04.423Z,17.90
2018-04-11T14:12:30.525Z,17.80
2018-04-11T14:14:56.646Z,18.00
2018-04-11T14:17:22.788Z,17.90
2018-04-11T14:19:48.962Z,18.00
2018-04-11T14:22:18.906Z,18.00
2018-04-11T14:24:45.064Z,17.90
2018-04-11T14:27:11.182Z,18.00
2018-04-11T14:29:37.423Z,18.10
2018-04-11T14:32:03.671Z,18.20
2018-04-11T14:34:29.931Z,18.20
2018-04-11T14:36:56.055Z,18.30
2018-04-11T14:39:22.178Z,18.50
2018-04-11T14:41:48.349Z,18.20
2018-04-11T14:44:14.532Z,18.10
2018-04-11T14:46:40.706Z,18.20
2018-04-11T14:49:06.855Z,18.10
2018-04-11T14:51:32.992Z,18.20
2018-04-11T14:54:04.736Z,18.30
2018-04-11T14:56:30.867Z,18.30
2018-04-11T14:58:58.588Z,18.30
2018-04-11T15:01:24.817Z,18.30
2018-04-11T15:03:52.080Z,18.20
2018-04-11T15:06:21.218Z,18.20
2018-04-11T15:08:47.748Z,18.10
2018-04-11T15:11:14.397Z,18.00
2018-04-11T15:13:40.627Z,17.90
2018-04-11T15:16:06.776Z,18.00
2018-04-11T15:18:34.001Z,17.90
2018-04-11T15:21:00.131Z,17.90
2018-04-11T15:23:26.257Z,17.80
2018-04-11T15:25:52.370Z,17.80
2018-04-11T15:28:18.498Z,17.90
2018-04-11T15:30:44.654Z,17.90
2018-04-11T15:33:10.776Z,18.00
2018-04-11T15:35:36.930Z,18.10
2018-04-11T15:38:03.139Z,18.10
2018-04-11T15:40:29.289Z,18.10
2018-04-11T15:42:55.496Z,18.20
2018-04-11T15:45:21.652Z,18.20
2018-04-11T15:47:47.771Z,18.20
2018-04-11T15:50:14.493Z,18.10
2018-04-11T15:52:40.634Z,18.00
2018-04-11T15:55:07.434Z,18.10
2018-04-11T15:57:33.843Z,18.30
2018-04-11T16:00:03.274Z,18.30
2018-04-11T16:02:30.921Z,18.20
2018-04-11T16:04:58.700Z,18.30
2018-04-11T16:07:24.939Z,18.20
2018-04-11T16:09:51.209Z,18.10
2018-04-11T16:12:17.465Z,18.20
2018-04-11T16:14:43.660Z,17.90
2018-04-11T16:17:09.924Z,18.10
2018-04-11T16:19:36.453Z,18.20
2018-04-11T16:22:02.636Z,18.30
2018-04-11T16:24:28.796Z,18.30
2018-04-11T16:26:54.934Z,18.10
2018-04-11T16:29:21.100Z,18.20
2018-04-11T16:31:47.216Z,17.90
2018-04-11T16:34:13.357Z,17.90
2018-04-11T16:36:39.497Z,18.10
2018-04-11T16:39:05.704Z,18.00
2018-04-11T16:41:31.942Z,18.00
2018-04-11T16:43:58.173Z,18.10
2018-04-11T16:46:24.289Z,18.10
2018-04-11T16:48:51.240Z,18.20
2018-04-11T16:51:17.396Z,18.20
2018-04-11T16:53:43.638Z,18.10
2018-04-11T16:56:13.927Z,18.00
2018-04-11T16:58:40.215Z,18.00
2018-04-11T17:01:06.436Z,18.00
2018-04-11T17:03:32.606Z,17.90
2018-04-11T17:05:58.703Z,17.90
2018-04-11T17:08:24.868Z,17.80
2018-04-11T17:10:54.208Z,17.80
2018-04-11T17:13:20.396Z,17.60
2018-04-11T17:15:46.601Z,17.70
2018-04-11T17:18:12.725Z,17.60
2018-04-11T17:20:51.860Z,17.50
2018-04-11T17:23:30.864Z,17.50
2018-04-11T17:26:09.149Z,17.50
2018-04-11T17:28:47.437Z,17.50
2018-04-11T17:34:13.201Z,17.50
2018-04-11T17:36:39.409Z,17.40
2018-04-11T17:39:05.597Z,17.30
2018-04-11T17:41:31.825Z,17.30
2018-04-11T17:44:04.168Z,17.20
2018-04-11T17:46:30.374Z,17.20
2018-04-11T17:48:56.543Z,17.20
2018-04-11T17:51:22.697Z,17.10
2018-04-11T17:53:48.891Z,17.10
2018-04-11T17:56:15.763Z,16.90
2018-04-11T17:58:42.039Z,16.90
2018-04-11T18:01:08.237Z,16.80
2018-04-11T18:03:34.421Z,16.70
2018-04-11T18:06:01.286Z,16.60
2018-04-11T18:08:28.006Z,16.50
2018-04-11T18:10:54.208Z,16.50
2018-04-11T18:13:20.356Z,16.50
2018-04-11T18:15:46.470Z,16.40
2018-04-11T18:18:12.691Z,16.30
2018-04-11T18:20:38.899Z,16.30
2018-04-11T18:23:05.071Z,16.20
2018-04-11T18:25:31.188Z,16.20
2018-04-11T18:27:57.358Z,16.20
2018-04-11T18:30:23.588Z,16.10
2018-04-11T18:32:49.919Z,16.00
2018-04-11T18:35:16.288Z,16.00
2018-04-11T18:37:44.043Z,15.90
2018-04-11T18:40:10.585Z,15.90
2018-04-11T18:42:37.477Z,15.80
2018-04-11T18:45:03.686Z,15.70
2018-04-11T18:47:30.011Z,15.80
2018-04-11T18:50:01.606Z,15.70
2018-04-11T18:52:27.743Z,15.60
2018-04-11T18:54:54.911Z,15.60
2018-04-11T18:57:21.119Z,15.60
2018-04-11T18:59:47.258Z,15.50
2018-04-11T19:02:13.399Z,15.50
2018-04-11T19:04:40.452Z,15.50
2018-04-11T19:07:06.670Z,15.50
2018-04-11T19:09:32.842Z,15.40
2018-04-11T19:11:59.057Z,15.50
2018-04-11T19:14:25.211Z,15.40
2018-04-11T19:16:51.371Z,15.30
2018-04-11T19:19:18.349Z,15.20
2018-04-11T19:21:44.540Z,15.30
2018-04-11T19:24:11.485Z,15.20
2018-04-11T19:26:38.495Z,15.10
2018-04-11T19:29:04.772Z,15.00
2018-04-11T19:31:33.553Z,15.00
2018-04-11T19:33:59.793Z,15.00
2018-04-11T19:36:25.976Z,14.90
2018-04-11T19:38:52.152Z,14.90
2018-04-11T19:41:18.396Z,14.90
2018-04-11T19:43:44.769Z,14.90
2018-04-11T19:46:10.973Z,14.90
2018-04-11T19:48:37.145Z,14.90
2018-04-11T19:51:03.314Z,14.90
2018-04-11T19:53:29.452Z,14.90
2018-04-11T19:55:55.745Z,14.80
2018-04-11T19:58:22.860Z,14.80
2018-04-11T20:00:49.132Z,14.70
2018-04-11T20:03:15.525Z,14.70
2018-04-11T20:05:43.366Z,14.60
2018-04-11T20:08:09.572Z,14.60
2018-04-11T20:10:36.732Z,14.60
2018-04-11T20:13:03.082Z,14.60
2018-04-11T20:15:29.368Z,14.60
2018-04-11T20:17:55.721Z,14.60
2018-04-11T20:20:22.212Z,14.60
2018-04-11T20:22:48.378Z,14.50
2018-04-11T20:25:14.558Z,14.40
2018-04-11T20:27:40.832Z,14.40
2018-04-11T20:30:07.123Z,14.50
2018-04-11T20:32:33.385Z,14.40
2018-04-11T20:34:59.551Z,14.20
2018-04-11T20:37:26.484Z,14.30
2018-04-11T20:39:52.647Z,14.30
2018-04-11T20:42:18.791Z,14.30
2018-04-11T20:44:45.070Z,14.20
2018-04-11T20:47:11.207Z,14.20
2018-04-11T20:49:38.163Z,14.20
2018-04-11T20:52:04.316Z,14.20
2018-04-11T20:54:30.467Z,14.20
2018-04-11T20:56:56.650Z,14.20
2018-04-11T20:59:22.872Z,14.10
2018-04-11T21:01:49.012Z,14.20
2018-04-11T21:04:15.163Z,14.20
2018-04-11T21:06:41.299Z,14.20
2018-04-11T21:09:07.446Z,14.20
2018-04-11T21:11:34.385Z,14.20
2018-04-11T21:14:00.528Z,14.10
2018-04-11T21:16:27.416Z,14.10
2018-04-11T21:18:53.644Z,14.10
2018-04-11T21:21:19.808Z,14.10
2018-04-11T21:23:46.141Z,14.00
2018-04-11T21:26:13.048Z,14.00
2018-04-11T21:28:39.210Z,13.90
2018-04-11T21:31:05.350Z,14.00
2018-04-11T21:33:31.582Z,14.00
2018-04-11T21:35:57.799Z,14.00
2018-04-11T21:38:24.653Z,14.00
2018-04-11T21:40:50.830Z,13.90
2018-04-11T21:43:17.032Z,13.90
2018-04-11T21:45:43.199Z,14.00
2018-04-11T21:48:09.339Z,14.00
2018-04-11T21:50:36.341Z,13.90
2018-04-11T21:53:02.562Z,13.90
2018-04-11T21:55:28.692Z,14.00
2018-04-11T21:57:54.861Z,14.00
2018-04-11T22:00:21.032Z,14.00
2018-04-11T22:02:47.201Z,13.90
2018-04-11T22:05:13.359Z,13.90
2018-04-11T22:07:39.516Z,14.00
2018-04-11T22:10:05.747Z,13.90
2018-04-11T22:12:32.065Z,13.80
2018-04-11T22:14:58.299Z,13.90
2018-04-11T22:17:24.482Z,13.80
2018-04-11T22:19:50.653Z,13.90
2018-04-11T22:22:16.863Z,13.80
2018-04-11T22:24:43.775Z,13.80
2018-04-11T22:27:09.976Z,13.70
2018-04-11T22:29:36.216Z,13.80
2018-04-11T22:32:02.393Z,13.70
2018-04-11T22:34:28.539Z,13.70
2018-04-11T22:36:54.812Z,13.60
2018-04-11T22:39:21.704Z,13.60
2018-04-11T22:41:48.047Z,13.60
2018-04-11T22:44:14.361Z,13.50
2018-04-11T22:46:40.612Z,13.50
2018-04-11T22:49:06.814Z,13.50
2018-04-11T22:51:33.118Z,13.50
2018-04-11T22:53:59.289Z,13.60
2018-04-11T22:56:25.452Z,13.60
2018-04-11T22:58:51.722Z,13.50
2018-04-11T23:01:17.946Z,13.50
2018-04-11T23:03:44.165Z,13.40
2018-04-11T23:06:10.394Z,13.40
2018-04-11T23:08:37.265Z,13.40
2018-04-11T23:11:03.422Z,13.40
2018-04-11T23:13:29.590Z,13.40
2018-04-11T23:15:55.847Z,13.40
2018-04-11T23:18:22.084Z,13.40
2018-04-11T23:23:27.653Z,13.40
2018-04-11T23:25:56.328Z,13.40
2018-04-11T23:31:23.714Z,13.40
2018-04-11T23:33:49.852Z,13.30
2018-04-11T23:36:15.994Z,13.30
2018-04-11T23:38:42.095Z,13.40
2018-04-11T23:41:08.315Z,13.30
2018-04-11T23:43:34.450Z,13.30
2018-04-11T23:46:00.603Z,13.30
2018-04-11T23:48:26.787Z,13.30
2018-04-11T23:50:53.015Z,13.30
2018-04-11T23:53:20.623Z,13.30
2018-04-11T23:55:46.804Z,13.20
2018-04-11T23:58:13.686Z,13.20
